sensor_id;sensor_type;location;lat;lon;timestamp;pressure;altitude;pressure_sealevel;temperature;humidity
79612;BME280;69094;48.154;11.536;2023-11-22T00:00:12;95590.06;;;6.38;89.17
79612;BME280;69094;48.154;11.536;2023-11-22T00:02:38;95581.88;;;6.43;89.18
79612;BME280;69094;48.154;11.536;2023-11-22T00:05:04;95588.50;;;6.51;88.59
79612;BME280;69094;48.154;11.536;2023-11-22T00:07:33;95588.00;;;6.63;87.99
79612;BME280;69094;48.154;11.536;2023-11-22T00:09:59;95587.66;;;6.37;89.18
79612;BME280;69094;48.154;11.536;2023-11-22T00:12:26;95597.59;;;6.41;88.98
79612;BME280;69094;48.154;11.536;2023-11-22T00:14:53;95606.59;;;6.37;89.12
79612;BME280;69094;48.154;11.536;2023-11-22T00:17:18;95597.34;;;6.24;89.83
79612;BME280;69094;48.154;11.536;2023-11-22T00:19:44;95594.03;;;6.27;90.05
79612;BME280;69094;48.154;11.536;2023-11-22T00:22:10;95591.44;;;6.36;89.43
79612;BME280;69094;48.154;11.536;2023-11-22T00:24:39;95599.00;;;6.39;89.52
79612;BME280;69094;48.154;11.536;2023-11-22T00:27:05;95595.88;;;6.32;89.55
79612;BME280;69094;48.154;11.536;2023-11-22T00:29:31;95598.38;;;6.42;88.94
79612;BME280;69094;48.154;11.536;2023-11-22T00:31:57;95596.06;;;6.35;88.46
79612;BME280;69094;48.154;11.536;2023-11-22T00:34:22;95603.56;;;6.24;89.63
79612;BME280;69094;48.154;11.536;2023-11-22T00:36:48;95602.66;;;6.29;89.69
79612;BME280;69094;48.154;11.536;2023-11-22T00:39:14;95602.78;;;6.38;88.87
79612;BME280;69094;48.154;11.536;2023-11-22T00:41:39;95594.16;;;6.36;88.51
79612;BME280;69094;48.154;11.536;2023-11-22T00:44:04;95600.72;;;6.49;88.67
79612;BME280;69094;48.154;11.536;2023-11-22T00:46:31;95601.47;;;6.35;88.39
79612;BME280;69094;48.154;11.536;2023-11-22T00:48:57;95612.81;;;6.18;89.69
79612;BME280;69094;48.154;11.536;2023-11-22T00:51:22;95601.28;;;6.32;89.80
79612;BME280;69094;48.154;11.536;2023-11-22T00:53:48;95606.78;;;6.40;88.00
79612;BME280;69094;48.154;11.536;2023-11-22T00:56:14;95601.09;;;6.42;87.96
79612;BME280;69094;48.154;11.536;2023-11-22T00:58:40;95607.34;;;6.56;86.63
79612;BME280;69094;48.154;11.536;2023-11-22T01:01:05;95609.31;;;6.51;87.45
79612;BME280;69094;48.154;11.536;2023-11-22T01:03:30;95614.81;;;6.13;87.94
79612;BME280;69094;48.154;11.536;2023-11-22T01:05:56;95614.00;;;6.31;87.34
79612;BME280;69094;48.154;11.536;2023-11-22T01:08:21;95619.97;;;6.28;87.29
79612;BME280;69094;48.154;11.536;2023-11-22T01:10:47;95622.56;;;6.19;87.22
79612;BME280;69094;48.154;11.536;2023-11-22T01:13:12;95624.19;;;6.01;88.31
79612;BME280;69094;48.154;11.536;2023-11-22T01:15:40;95622.97;;;5.94;88.47
79612;BME280;69094;48.154;11.536;2023-11-22T01:18:05;95618.03;;;6.15;87.85
79612;BME280;69094;48.154;11.536;2023-11-22T01:20:31;95618.72;;;6.07;88.91
79612;BME280;69094;48.154;11.536;2023-11-22T01:22:56;95620.47;;;6.30;88.20
79612;BME280;69094;48.154;11.536;2023-11-22T01:25:21;95624.16;;;6.20;88.32
79612;BME280;69094;48.154;11.536;2023-11-22T01:27:47;95625.63;;;6.13;88.42
79612;BME280;69094;48.154;11.536;2023-11-22T01:30:12;95626.22;;;6.10;88.56
79612;BME280;69094;48.154;11.536;2023-11-22T01:32:38;95627.06;;;6.24;88.48
79612;BME280;69094;48.154;11.536;2023-11-22T01:35:04;95629.47;;;6.25;87.93
79612;BME280;69094;48.154;11.536;2023-11-22T01:37:31;95634.84;;;6.12;88.10
79612;BME280;69094;48.154;11.536;2023-11-22T01:39:57;95632.91;;;5.93;89.11
79612;BME280;69094;48.154;11.536;2023-11-22T01:42:23;95634.78;;;5.98;89.07
79612;BME280;69094;48.154;11.536;2023-11-22T01:44:50;95638.84;;;5.95;89.15
79612;BME280;69094;48.154;11.536;2023-11-22T01:47:16;95641.31;;;5.92;88.15
79612;BME280;69094;48.154;11.536;2023-11-22T01:49:42;95652.03;;;6.16;87.77
79612;BME280;69094;48.154;11.536;2023-11-22T01:52:07;95655.97;;;6.23;87.79
79612;BME280;69094;48.154;11.536;2023-11-22T01:54:33;95658.03;;;6.13;88.75
79612;BME280;69094;48.154;11.536;2023-11-22T01:57:00;95651.25;;;6.15;87.77
79612;BME280;69094;48.154;11.536;2023-11-22T01:59:27;95647.88;;;6.23;87.91
79612;BME280;69094;48.154;11.536;2023-11-22T02:01:54;95650.97;;;6.17;86.94
79612;BME280;69094;48.154;11.536;2023-11-22T02:04:20;95647.53;;;5.92;88.94
79612;BME280;69094;48.154;11.536;2023-11-22T02:06:46;95655.00;;;6.00;86.85
79612;BME280;69094;48.154;11.536;2023-11-22T02:09:12;95655.63;;;5.54;85.00
79612;BME280;69094;48.154;11.536;2023-11-22T02:11:41;95661.81;;;5.12;86.33
79612;BME280;69094;48.154;11.536;2023-11-22T02:14:07;95667.81;;;5.04;85.77
79612;BME280;69094;48.154;11.536;2023-11-22T02:16:34;95667.72;;;4.90;83.59
79612;BME280;69094;48.154;11.536;2023-11-22T02:19:00;95676.78;;;4.75;84.59
79612;BME280;69094;48.154;11.536;2023-11-22T02:21:25;95676.78;;;4.46;83.95
79612;BME280;69094;48.154;11.536;2023-11-22T02:23:51;95690.50;;;4.44;83.69
79612;BME280;69094;48.154;11.536;2023-11-22T02:26:16;95697.13;;;4.28;83.88
79612;BME280;69094;48.154;11.536;2023-11-22T02:28:43;95697.44;;;4.21;84.04
79612;BME280;69094;48.154;11.536;2023-11-22T02:31:08;95700.41;;;4.20;85.26
79612;BME280;69094;48.154;11.536;2023-11-22T02:33:34;95704.22;;;4.14;84.94
79612;BME280;69094;48.154;11.536;2023-11-22T02:36:01;95697.75;;;4.15;84.72
79612;BME280;69094;48.154;11.536;2023-11-22T02:38:27;95699.59;;;4.19;83.11
79612;BME280;69094;48.154;11.536;2023-11-22T02:40:53;95699.53;;;3.95;82.17
79612;BME280;69094;48.154;11.536;2023-11-22T02:43:19;95711.22;;;4.15;81.86
79612;BME280;69094;48.154;11.536;2023-11-22T02:45:44;95712.38;;;4.03;81.09
79612;BME280;69094;48.154;11.536;2023-11-22T02:48:09;95709.09;;;4.12;80.03
79612;BME280;69094;48.154;11.536;2023-11-22T02:50:35;95711.28;;;3.60;81.48
79612;BME280;69094;48.154;11.536;2023-11-22T02:53:02;95721.00;;;3.56;82.55
79612;BME280;69094;48.154;11.536;2023-11-22T02:55:29;95721.81;;;3.56;81.80
79612;BME280;69094;48.154;11.536;2023-11-22T02:57:54;95714.25;;;3.58;80.74
79612;BME280;69094;48.154;11.536;2023-11-22T03:00:19;95722.06;;;3.55;79.66
79612;BME280;69094;48.154;11.536;2023-11-22T03:02:46;95715.09;;;3.54;80.04
79612;BME280;69094;48.154;11.536;2023-11-22T03:05:12;95724.75;;;3.55;79.93
79612;BME280;69094;48.154;11.536;2023-11-22T03:07:41;95726.41;;;3.51;81.07
79612;BME280;69094;48.154;11.536;2023-11-22T03:10:07;95728.28;;;3.55;78.86
79612;BME280;69094;48.154;11.536;2023-11-22T03:12:33;95733.94;;;3.49;80.05
79612;BME280;69094;48.154;11.536;2023-11-22T03:14:59;95729.88;;;3.56;79.98
79612;BME280;69094;48.154;11.536;2023-11-22T03:17:27;95737.72;;;3.42;77.86
79612;BME280;69094;48.154;11.536;2023-11-22T03:19:54;95737.53;;;3.29;80.84
79612;BME280;69094;48.154;11.536;2023-11-22T03:22:21;95746.59;;;3.38;81.50
79612;BME280;69094;48.154;11.536;2023-11-22T03:24:46;95744.00;;;3.12;82.14
79612;BME280;69094;48.154;11.536;2023-11-22T03:27:12;95752.88;;;3.13;82.34
79612;BME280;69094;48.154;11.536;2023-11-22T03:29:38;95745.63;;;3.18;82.42
79612;BME280;69094;48.154;11.536;2023-11-22T03:32:03;95748.59;;;3.12;80.76
79612;BME280;69094;48.154;11.536;2023-11-22T03:34:29;95742.94;;;3.18;82.21
79612;BME280;69094;48.154;11.536;2023-11-22T03:36:54;95749.09;;;3.24;82.08
79612;BME280;69094;48.154;11.536;2023-11-22T03:39:19;95750.69;;;3.30;81.51
79612;BME280;69094;48.154;11.536;2023-11-22T03:41:45;95756.38;;;3.18;82.18
79612;BME280;69094;48.154;11.536;2023-11-22T03:44:10;95757.16;;;3.24;81.62
79612;BME280;69094;48.154;11.536;2023-11-22T03:46:39;95773.28;;;3.29;82.15
79612;BME280;69094;48.154;11.536;2023-11-22T03:49:05;95780.25;;;3.35;82.07
79612;BME280;69094;48.154;11.536;2023-11-22T03:51:32;95779.75;;;3.13;80.83
79612;BME280;69094;48.154;11.536;2023-11-22T03:53:58;95784.88;;;3.19;81.92
79612;BME280;69094;48.154;11.536;2023-11-22T03:56:23;95779.50;;;3.19;81.93
79612;BME280;69094;48.154;11.536;2023-11-22T03:58:49;95780.78;;;3.37;81.06
79612;BME280;69094;48.154;11.536;2023-11-22T04:01:14;95793.94;;;3.49;80.58
79612;BME280;69094;48.154;11.536;2023-11-22T04:03:41;95793.44;;;3.32;81.33
79612;BME280;69094;48.154;11.536;2023-11-22T04:06:07;95805.59;;;3.19;81.93
79612;BME280;69094;48.154;11.536;2023-11-22T04:08:32;95802.06;;;3.29;82.02
79612;BME280;69094;48.154;11.536;2023-11-22T04:10:57;95815.22;;;3.30;82.11
79612;BME280;69094;48.154;11.536;2023-11-22T04:13:23;95809.31;;;3.33;81.51
79612;BME280;69094;48.154;11.536;2023-11-22T04:15:50;95812.53;;;3.45;81.08
79612;BME280;69094;48.154;11.536;2023-11-22T04:18:15;95806.00;;;3.62;80.95
79612;BME280;69094;48.154;11.536;2023-11-22T04:20:41;95814.59;;;3.69;80.22
79612;BME280;69094;48.154;11.536;2023-11-22T04:23:07;95817.34;;;3.54;79.24
79612;BME280;69094;48.154;11.536;2023-11-22T04:25:36;95818.44;;;3.37;80.05
79612;BME280;69094;48.154;11.536;2023-11-22T04:28:01;95816.56;;;3.43;80.22
79612;BME280;69094;48.154;11.536;2023-11-22T04:30:27;95822.75;;;3.38;80.44
79612;BME280;69094;48.154;11.536;2023-11-22T04:32:52;95822.97;;;3.57;80.86
79612;BME280;69094;48.154;11.536;2023-11-22T04:35:18;95824.06;;;3.51;79.69
79612;BME280;69094;48.154;11.536;2023-11-22T04:37:43;95834.25;;;3.59;79.50
79612;BME280;69094;48.154;11.536;2023-11-22T04:40:09;95836.69;;;3.61;79.73
79612;BME280;69094;48.154;11.536;2023-11-22T04:42:36;95833.69;;;3.67;78.86
79612;BME280;69094;48.154;11.536;2023-11-22T04:45:03;95842.31;;;3.70;78.79
79612;BME280;69094;48.154;11.536;2023-11-22T04:47:28;95839.66;;;3.59;79.86
79612;BME280;69094;48.154;11.536;2023-11-22T04:49:54;95853.88;;;3.70;78.81
79612;BME280;69094;48.154;11.536;2023-11-22T04:52:19;95845.34;;;3.42;78.78
79612;BME280;69094;48.154;11.536;2023-11-22T04:54:44;95849.69;;;3.23;79.21
79612;BME280;69094;48.154;11.536;2023-11-22T04:57:10;95858.81;;;3.27;78.97
79612;BME280;69094;48.154;11.536;2023-11-22T04:59:35;95865.00;;;3.17;79.42
79612;BME280;69094;48.154;11.536;2023-11-22T05:02:01;95870.66;;;3.26;79.44
79612;BME280;69094;48.154;11.536;2023-11-22T05:04:26;95873.63;;;3.24;79.13
79612;BME280;69094;48.154;11.536;2023-11-22T05:06:53;95870.88;;;3.45;78.93
79612;BME280;69094;48.154;11.536;2023-11-22T05:09:19;95878.19;;;3.34;79.44
79612;BME280;69094;48.154;11.536;2023-11-22T05:11:45;95883.53;;;3.39;78.82
79612;BME280;69094;48.154;11.536;2023-11-22T05:14:10;95867.91;;;3.57;79.51
79612;BME280;69094;48.154;11.536;2023-11-22T05:16:36;95875.72;;;3.53;79.27
79612;BME280;69094;48.154;11.536;2023-11-22T05:19:01;95873.88;;;3.33;77.98
79612;BME280;69094;48.154;11.536;2023-11-22T05:21:27;95878.44;;;3.38;79.02
79612;BME280;69094;48.154;11.536;2023-11-22T05:23:52;95880.06;;;3.29;79.77
79612;BME280;69094;48.154;11.536;2023-11-22T05:26:20;95883.53;;;3.39;78.84
79612;BME280;69094;48.154;11.536;2023-11-22T05:28:46;95888.94;;;3.34;77.15
79612;BME280;69094;48.154;11.536;2023-11-22T05:31:13;95896.75;;;3.31;78.59
79612;BME280;69094;48.154;11.536;2023-11-22T05:33:39;95904.81;;;3.41;77.91
79612;BME280;69094;48.154;11.536;2023-11-22T05:36:05;95904.28;;;3.34;77.75
79612;BME280;69094;48.154;11.536;2023-11-22T05:38:31;95915.03;;;3.44;77.71
79612;BME280;69094;48.154;11.536;2023-11-22T05:40:59;95909.38;;;3.30;77.23
79612;BME280;69094;48.154;11.536;2023-11-22T05:43:25;95915.84;;;3.29;77.95
79612;BME280;69094;48.154;11.536;2023-11-22T05:45:58;95916.38;;;3.31;77.03
79612;BME280;69094;48.154;11.536;2023-11-22T05:48:25;95932.78;;;3.30;78.32
79612;BME280;69094;48.154;11.536;2023-11-22T05:50:50;95928.50;;;3.23;77.70
79612;BME280;69094;48.154;11.536;2023-11-22T05:53:16;95937.09;;;3.31;76.63
79612;BME280;69094;48.154;11.536;2023-11-22T05:55:48;95927.16;;;3.26;76.64
79612;BME280;69094;48.154;11.536;2023-11-22T05:58:14;95938.44;;;3.28;77.79
79612;BME280;69094;48.154;11.536;2023-11-22T06:00:45;95942.47;;;3.41;76.18
79612;BME280;69094;48.154;11.536;2023-11-22T06:03:12;95945.69;;;3.22;76.68
79612;BME280;69094;48.154;11.536;2023-11-22T06:05:39;95947.03;;;3.30;77.35
79612;BME280;69094;48.154;11.536;2023-11-22T06:08:05;95949.19;;;3.38;77.01
79612;BME280;69094;48.154;11.536;2023-11-22T06:10:30;95955.38;;;3.29;77.56
79612;BME280;69094;48.154;11.536;2023-11-22T06:12:56;95950.28;;;3.27;76.96
79612;BME280;69094;48.154;11.536;2023-11-22T06:15:33;95941.09;;;3.08;77.89
79612;BME280;69094;48.154;11.536;2023-11-22T06:18:02;95954.84;;;3.11;77.95
79612;BME280;69094;48.154;11.536;2023-11-22T06:20:27;95957.28;;;3.33;77.39
79612;BME280;69094;48.154;11.536;2023-11-22T06:22:53;95958.88;;;3.29;77.62
79612;BME280;69094;48.154;11.536;2023-11-22T06:25:18;95957.28;;;3.23;77.40
79612;BME280;69094;48.154;11.536;2023-11-22T06:27:44;95970.69;;;2.97;78.60
79612;BME280;69094;48.154;11.536;2023-11-22T06:30:10;95970.69;;;3.18;77.29
79612;BME280;69094;48.154;11.536;2023-11-22T06:33:02;95968.28;;;3.16;77.49
79612;BME280;69094;48.154;11.536;2023-11-22T06:38:21;95973.94;;;3.35;77.85
79612;BME280;69094;48.154;11.536;2023-11-22T06:40:47;95980.13;;;3.41;77.88
79612;BME280;69094;48.154;11.536;2023-11-22T06:43:12;95982.53;;;3.42;77.27
79612;BME280;69094;48.154;11.536;2023-11-22T06:45:38;95989.56;;;3.23;78.19
79612;BME280;69094;48.154;11.536;2023-11-22T06:48:03;95991.69;;;3.21;77.83
79612;BME280;69094;48.154;11.536;2023-11-22T06:50:29;95995.19;;;3.47;77.31
79612;BME280;69094;48.154;11.536;2023-11-22T06:53:03;96000.31;;;3.54;76.56
79612;BME280;69094;48.154;11.536;2023-11-22T06:55:37;96008.94;;;3.51;77.20
79612;BME280;69094;48.154;11.536;2023-11-22T06:58:04;96010.53;;;3.67;76.50
79612;BME280;69094;48.154;11.536;2023-11-22T07:00:31;96028.28;;;3.48;76.38
79612;BME280;69094;48.154;11.536;2023-11-22T07:02:58;96028.56;;;3.46;76.83
79612;BME280;69094;48.154;11.536;2023-11-22T07:05:26;96014.00;;;4.03;82.15
79612;BME280;69094;48.154;11.536;2023-11-22T07:08:04;96006.28;;;4.57;74.93
79612;BME280;69094;48.154;11.536;2023-11-22T07:10:36;96020.66;;;4.31;75.04
79612;BME280;69094;48.154;11.536;2023-11-22T07:13:07;96025.56;;;4.09;75.67
79612;BME280;69094;48.154;11.536;2023-11-22T07:15:36;96029.88;;;4.00;75.20
79612;BME280;69094;48.154;11.536;2023-11-22T07:18:02;96032.03;;;3.87;75.18
79612;BME280;69094;48.154;11.536;2023-11-22T07:20:28;96033.94;;;3.72;75.76
79612;BME280;69094;48.154;11.536;2023-11-22T07:22:54;96034.50;;;3.74;75.43
79612;BME280;69094;48.154;11.536;2023-11-22T07:25:23;96043.66;;;3.78;76.86
79612;BME280;69094;48.154;11.536;2023-11-22T07:27:50;96043.91;;;3.71;74.59
79612;BME280;69094;48.154;11.536;2023-11-22T07:30:16;96054.69;;;3.71;75.01
79612;BME280;69094;48.154;11.536;2023-11-22T07:32:44;96051.19;;;3.71;76.17
79612;BME280;69094;48.154;11.536;2023-11-22T07:35:10;96069.19;;;3.65;75.32
79612;BME280;69094;48.154;11.536;2023-11-22T07:37:37;96077.25;;;3.44;76.48
79612;BME280;69094;48.154;11.536;2023-11-22T07:40:08;96084.00;;;3.52;76.05
79612;BME280;69094;48.154;11.536;2023-11-22T07:42:35;96089.13;;;3.59;74.80
79612;BME280;69094;48.154;11.536;2023-11-22T07:45:00;96088.59;;;3.62;74.02
79612;BME280;69094;48.154;11.536;2023-11-22T07:47:26;96098.53;;;3.51;75.82
79612;BME280;69094;48.154;11.536;2023-11-22T07:49:53;96093.16;;;3.51;76.94
79612;BME280;69094;48.154;11.536;2023-11-22T07:52:21;96098.53;;;3.41;76.34
79612;BME280;69094;48.154;11.536;2023-11-22T07:54:46;96097.94;;;3.29;76.68
79612;BME280;69094;48.154;11.536;2023-11-22T07:57:11;96099.06;;;3.48;80.33
79612;BME280;69094;48.154;11.536;2023-11-22T07:59:37;96099.34;;;4.23;80.05
79612;BME280;69094;48.154;11.536;2023-11-22T08:02:02;96095.59;;;3.88;74.42
79612;BME280;69094;48.154;11.536;2023-11-22T08:04:31;96096.09;;;3.39;75.83
79612;BME280;69094;48.154;11.536;2023-11-22T08:06:57;96107.91;;;3.33;77.06
79612;BME280;69094;48.154;11.536;2023-11-22T08:09:23;96117.06;;;3.42;76.84
79612;BME280;69094;48.154;11.536;2023-11-22T08:11:48;96123.81;;;3.50;76.11
79612;BME280;69094;48.154;11.536;2023-11-22T08:14:15;96132.16;;;3.38;79.47
79612;BME280;69094;48.154;11.536;2023-11-22T08:16:41;96134.66;;;3.91;76.77
79612;BME280;69094;48.154;11.536;2023-11-22T08:19:08;96140.00;;;3.55;76.27
79612;BME280;69094;48.154;11.536;2023-11-22T08:21:34;96145.88;;;3.47;75.97
79612;BME280;69094;48.154;11.536;2023-11-22T08:24:00;96143.47;;;3.51;75.86
79612;BME280;69094;48.154;11.536;2023-11-22T08:26:26;96151.47;;;3.30;76.23
79612;BME280;69094;48.154;11.536;2023-11-22T08:28:51;96149.59;;;3.26;76.87
79612;BME280;69094;48.154;11.536;2023-11-22T08:31:17;96153.13;;;3.36;76.66
79612;BME280;69094;48.154;11.536;2023-11-22T08:33:42;96153.06;;;3.21;78.32
79612;BME280;69094;48.154;11.536;2023-11-22T08:36:08;96139.38;;;3.38;75.99
79612;BME280;69094;48.154;11.536;2023-11-22T08:38:36;96143.13;;;3.27;76.39
79612;BME280;69094;48.154;11.536;2023-11-22T08:41:05;96141.47;;;3.20;75.74
79612;BME280;69094;48.154;11.536;2023-11-22T08:43:36;96152.53;;;3.24;77.19
79612;BME280;69094;48.154;11.536;2023-11-22T08:46:02;96157.00;;;2.98;78.09
79612;BME280;69094;48.154;11.536;2023-11-22T08:48:32;96176.66;;;3.04;78.74
79612;BME280;69094;48.154;11.536;2023-11-22T08:50:58;96177.53;;;3.19;77.89
79612;BME280;69094;48.154;11.536;2023-11-22T08:53:24;96174.63;;;3.31;77.53
79612;BME280;69094;48.154;11.536;2023-11-22T08:55:50;96178.38;;;3.35;76.65
79612;BME280;69094;48.154;11.536;2023-11-22T08:58:17;96175.97;;;3.29;80.17
79612;BME280;69094;48.154;11.536;2023-11-22T09:00:42;96180.72;;;3.11;78.75
79612;BME280;69094;48.154;11.536;2023-11-22T09:03:11;96178.44;;;2.88;79.83
79612;BME280;69094;48.154;11.536;2023-11-22T09:05:41;96182.78;;;2.89;80.38
79612;BME280;69094;48.154;11.536;2023-11-22T09:08:08;96187.63;;;2.92;80.66
79612;BME280;69094;48.154;11.536;2023-11-22T09:10:38;96195.13;;;2.90;80.57
79612;BME280;69094;48.154;11.536;2023-11-22T09:13:04;96182.75;;;2.84;81.27
79612;BME280;69094;48.154;11.536;2023-11-22T09:15:30;96194.78;;;3.23;79.70
79612;BME280;69094;48.154;11.536;2023-11-22T09:17:59;96202.16;;;3.59;79.91
79612;BME280;69094;48.154;11.536;2023-11-22T09:20:24;96208.47;;;4.10;78.07
79612;BME280;69094;48.154;11.536;2023-11-22T09:22:52;96210.06;;;3.96;75.69
79612;BME280;69094;48.154;11.536;2023-11-22T09:25:25;96215.44;;;3.91;76.98
79612;BME280;69094;48.154;11.536;2023-11-22T09:27:55;96224.31;;;3.92;76.29
79612;BME280;69094;48.154;11.536;2023-11-22T09:30:25;96218.66;;;3.88;76.49
79612;BME280;69094;48.154;11.536;2023-11-22T09:33:09;96229.94;;;3.80;76.94
79612;BME280;69094;48.154;11.536;2023-11-22T09:35:55;96228.06;;;3.85;78.51
79612;BME280;69094;48.154;11.536;2023-11-22T09:38:40;96240.81;;;4.31;77.06
79612;BME280;69094;48.154;11.536;2023-11-22T09:41:05;96228.94;;;4.17;77.46
79612;BME280;69094;48.154;11.536;2023-11-22T09:43:33;96231.84;;;4.00;75.58
79612;BME280;69094;48.154;11.536;2023-11-22T09:45:58;96235.84;;;3.72;76.48
79612;BME280;69094;48.154;11.536;2023-11-22T09:48:24;96231.75;;;3.59;76.15
79612;BME280;69094;48.154;11.536;2023-11-22T09:53:36;96231.72;;;3.43;76.95
79612;BME280;69094;48.154;11.536;2023-11-22T09:56:07;96232.72;;;3.32;76.68
79612;BME280;69094;48.154;11.536;2023-11-22T09:58:33;96235.41;;;3.32;75.89
79612;BME280;69094;48.154;11.536;2023-11-22T10:01:00;96235.19;;;3.39;76.05
79612;BME280;69094;48.154;11.536;2023-11-22T10:03:26;96233.47;;;3.22;76.78
79612;BME280;69094;48.154;11.536;2023-11-22T10:05:55;96234.78;;;3.15;76.22
79612;BME280;69094;48.154;11.536;2023-11-22T10:08:21;96230.00;;;3.22;76.52
79612;BME280;69094;48.154;11.536;2023-11-22T10:10:49;96246.22;;;3.42;76.32
79612;BME280;69094;48.154;11.536;2023-11-22T10:13:16;96247.09;;;3.58;76.22
79612;BME280;69094;48.154;11.536;2023-11-22T10:15:48;96239.06;;;3.69;73.87
79612;BME280;69094;48.154;11.536;2023-11-22T10:18:14;96227.81;;;3.14;74.38
79612;BME280;69094;48.154;11.536;2023-11-22T10:20:41;96228.69;;;3.30;74.47
79612;BME280;69094;48.154;11.536;2023-11-22T10:23:09;96240.03;;;3.42;74.08
79612;BME280;69094;48.154;11.536;2023-11-22T10:25:36;96248.03;;;3.27;74.44
79612;BME280;69094;48.154;11.536;2023-11-22T10:28:02;96236.56;;;3.47;75.44
79612;BME280;69094;48.154;11.536;2023-11-22T10:30:28;96236.63;;;3.67;73.31
79612;BME280;69094;48.154;11.536;2023-11-22T10:32:54;96248.28;;;3.88;73.54
79612;BME280;69094;48.154;11.536;2023-11-22T10:35:21;96235.09;;;3.97;71.46
79612;BME280;69094;48.154;11.536;2023-11-22T10:37:47;96242.00;;;3.67;72.59
79612;BME280;69094;48.154;11.536;2023-11-22T10:40:14;96230.66;;;3.55;73.43
79612;BME280;69094;48.154;11.536;2023-11-22T10:42:41;96238.19;;;3.53;73.92
79612;BME280;69094;48.154;11.536;2023-11-22T10:45:12;96241.16;;;3.56;73.57
79612;BME280;69094;48.154;11.536;2023-11-22T10:47:38;96245.84;;;3.86;71.75
79612;BME280;69094;48.154;11.536;2023-11-22T10:50:07;96256.56;;;3.71;71.64
79612;BME280;69094;48.154;11.536;2023-11-22T10:52:35;96255.56;;;3.24;73.08
79612;BME280;69094;48.154;11.536;2023-11-22T10:55:03;96251.03;;;3.35;73.88
79612;BME280;69094;48.154;11.536;2023-11-22T10:57:32;96246.34;;;3.73;73.05
79612;BME280;69094;48.154;11.536;2023-11-22T11:00:01;96250.19;;;4.03;73.50
79612;BME280;69094;48.154;11.536;2023-11-22T11:02:33;96260.69;;;4.15;71.27
79612;BME280;69094;48.154;11.536;2023-11-22T11:05:11;96265.22;;;3.78;71.95
79612;BME280;69094;48.154;11.536;2023-11-22T11:07:48;96271.66;;;3.82;72.61
79612;BME280;69094;48.154;11.536;2023-11-22T11:10:15;96273.59;;;4.02;71.44
79612;BME280;69094;48.154;11.536;2023-11-22T11:12:41;96275.19;;;3.83;71.80
79612;BME280;69094;48.154;11.536;2023-11-22T11:15:07;96274.63;;;3.81;73.23
79612;BME280;69094;48.154;11.536;2023-11-22T11:17:34;96271.97;;;3.91;71.88
79612;BME280;69094;48.154;11.536;2023-11-22T11:20:00;96280.03;;;3.81;71.23
79612;BME280;69094;48.154;11.536;2023-11-22T11:22:25;96285.69;;;3.89;71.85
79612;BME280;69094;48.154;11.536;2023-11-22T11:25:00;96278.16;;;3.86;71.02
79612;BME280;69094;48.154;11.536;2023-11-22T11:27:28;96278.94;;;3.87;72.55
79612;BME280;69094;48.154;11.536;2023-11-22T11:29:55;96282.53;;;4.08;71.70
79612;BME280;69094;48.154;11.536;2023-11-22T11:32:34;96267.97;;;4.14;70.41
79612;BME280;69094;48.154;11.536;2023-11-22T11:35:00;96256.16;;;4.30;69.62
79612;BME280;69094;48.154;11.536;2023-11-22T11:37:31;96269.56;;;4.05;70.84
79612;BME280;69094;48.154;11.536;2023-11-22T11:39:58;96261.78;;;4.03;70.57
79612;BME280;69094;48.154;11.536;2023-11-22T11:42:25;96258.56;;;4.22;76.23
79612;BME280;69094;48.154;11.536;2023-11-22T11:47:24;96257.50;;;4.28;69.36
79612;BME280;69094;48.154;11.536;2023-11-22T11:49:50;96253.72;;;4.24;69.32
79612;BME280;69094;48.154;11.536;2023-11-22T11:52:15;96255.88;;;4.17;70.11
79612;BME280;69094;48.154;11.536;2023-11-22T11:54:41;96242.34;;;3.91;71.18
79612;BME280;69094;48.154;11.536;2023-11-22T11:57:07;96246.19;;;4.57;75.63
79612;BME280;69094;48.154;11.536;2023-11-22T11:59:33;96242.16;;;4.44;70.07
79612;BME280;69094;48.154;11.536;2023-11-22T12:02:06;96239.97;;;4.10;70.76
79612;BME280;69094;48.154;11.536;2023-11-22T12:04:32;96241.66;;;3.43;70.22
79612;BME280;69094;48.154;11.536;2023-11-22T12:06:58;96248.38;;;3.40;71.07
79612;BME280;69094;48.154;11.536;2023-11-22T12:09:24;96245.00;;;3.71;70.52
79612;BME280;69094;48.154;11.536;2023-11-22T12:11:51;96251.78;;;3.94;68.50
79612;BME280;69094;48.154;11.536;2023-11-22T12:14:18;96256.31;;;3.73;69.90
79612;BME280;69094;48.154;11.536;2023-11-22T12:16:44;96272.13;;;3.54;71.97
79612;BME280;69094;48.154;11.536;2023-11-22T12:19:20;96276.47;;;3.70;71.36
79612;BME280;69094;48.154;11.536;2023-11-22T12:21:46;96284.09;;;3.94;69.39
79612;BME280;69094;48.154;11.536;2023-11-22T12:24:11;96285.16;;;3.87;68.84
79612;BME280;69094;48.154;11.536;2023-11-22T12:26:39;96288.91;;;3.86;68.91
79612;BME280;69094;48.154;11.536;2023-11-22T12:29:06;96294.50;;;3.64;70.02
79612;BME280;69094;48.154;11.536;2023-11-22T12:31:34;96294.28;;;3.81;71.49
79612;BME280;69094;48.154;11.536;2023-11-22T12:34:00;96292.13;;;3.78;71.27
79612;BME280;69094;48.154;11.536;2023-11-22T12:36:27;96289.44;;;3.78;70.90
79612;BME280;69094;48.154;11.536;2023-11-22T12:38:54;96296.72;;;3.78;70.65
79612;BME280;69094;48.154;11.536;2023-11-22T12:41:20;96288.81;;;3.56;71.74
79612;BME280;69094;48.154;11.536;2023-11-22T12:44:01;96287.78;;;3.72;70.25
79612;BME280;69094;48.154;11.536;2023-11-22T12:46:27;96285.63;;;3.69;69.74
79612;BME280;69094;48.154;11.536;2023-11-22T12:49:05;96278.91;;;3.77;70.19
79612;BME280;69094;48.154;11.536;2023-11-22T12:51:31;96287.75;;;3.62;70.96
79612;BME280;69094;48.154;11.536;2023-11-22T12:53:56;96297.13;;;3.54;72.01
79612;BME280;69094;48.154;11.536;2023-11-22T12:56:22;96290.59;;;3.40;72.89
79612;BME280;69094;48.154;11.536;2023-11-22T12:58:47;96299.88;;;3.64;72.24
79612;BME280;69094;48.154;11.536;2023-11-22T13:01:13;96303.44;;;3.75;72.25
79612;BME280;69094;48.154;11.536;2023-11-22T13:03:38;96315.31;;;3.89;70.94
79612;BME280;69094;48.154;11.536;2023-11-22T13:06:04;96296.13;;;3.65;71.08